Ewae — FAC8141 — position and weather

sailwx.info

Track history (hours):
 
Tides and Currents Weather Stations Pressure Air Temp Water Temp Dewpoint Dewpoint Depression Visibility Wind Speed Wind Dir Waves Ship Positions

Ewae

Last reported at 2018-Jun-18 16:04 UTC. Time now 2018-Jun-21 23:43 UTC.
Position N 47°23' W 002°40'.

Length 9 m.

MMSI: 227348810.

Date/timePositionNaut miles runAvg speedWind from/ knotsBaromVisibWave heightAir tempDewpointWater temp
2018-Jun-18 16:04N 47°23' W 002°40'0 4.6
2018-Jun-18 16:00N 47°23' W 002°41'3 4.7
2018-Jun-18 15:16N 47°24' W 002°46'2 5.0
2018-Jun-18 14:58N 47°24' W 002°48'3 5.8
2018-Jun-18 14:30N 47°26' W 002°51'3 5.8
2018-Jun-18 14:00N 47°28' W 002°54'2 4.7
2018-Jun-18 13:29N 47°30' W 002°57'2 4.8
2018-Jun-18 13:00N 47°31' W 002°59'3 5.3
2018-Jun-18 12:30N 47°34' W 003°01'2 3.5
2018-Jun-18 12:00N 47°35' W 003°02'0 0.0
2018-Jun-18 10:15N 47°35' W 003°02'0 0.0
2018-Jun-18 09:57N 47°35' W 003°02'0 0.0
2018-Jun-18 09:30N 47°35' W 003°02'0 0.0
2018-Jun-18 09:00N 47°35' W 003°02'0 0.0
2018-Jun-16 11:53N 47°35' W 003°02'0 0.6
2018-Jun-16 11:30N 47°35' W 003°01'2 3.6
2018-Jun-16 11:00N 47°34' W 003°00'1 2.4
2018-Jun-16 10:30N 47°33' W 002°60'2 3.8
2018-Jun-16 10:00N 47°31' W 002°58'1 1.8
2018-Jun-16 09:30N 47°31' W 002°56'3 6.2
2018-Jun-16 08:59N 47°34' W 002°54'3 5.5
2018-Jun-16 08:30N 47°36' W 002°52'0 0.0
2018-Jun-15 15:55N 47°36' W 002°51'0 0.0
2018-Jun-15 15:28N 47°36' W 002°51'0 0.0
2018-Jun-15 14:55N 47°36' W 002°51'0 0.0
2018-Jun-15 14:28N 47°36' W 002°51'0 0.0
2018-Jun-15 13:58N 47°36' W 002°51'1 3.1
2018-Jun-15 13:30N 47°35' W 002°52'1 2.6
2018-Jun-15 13:00N 47°34' W 002°54'1 2.3
2018-Jun-15 12:30N 47°33' W 002°55'1 1.3
2018-Jun-15 12:00N 47°33' W 002°56'1 2.0
2018-Jun-15 11:30N 47°32' W 002°56'1 2.6
2018-Jun-15 11:00N 47°31' W 002°56'2 3.2
2018-Jun-15 10:30N 47°30' W 002°58'2 3.4
2018-Jun-15 10:00N 47°28' W 002°60'3 3.7
2018-Jun-15 09:06N 47°26' W 003°04'0 2.7
2018-Jun-15 08:59N 47°26' W 003°04'1 2.4
2018-Jun-15 08:30N 47°26' W 003°05'1 2.3
2018-Jun-15 08:00N 47°25' W 003°07'1 2.0
2018-Jun-15 07:29N 47°25' W 003°08'2 4.4
2018-Jun-15 06:56N 47°24' W 003°12'1 0.1
2018-Jun-14 10:20N 47°23' W 003°13'2 6.3
2018-Jun-14 10:01N 47°24' W 003°15'3 5.9
2018-Jun-14 09:31N 47°27' W 003°18'3 6.4
2018-Jun-14 09:01N 47°29' W 003°21'3 6.8
2018-Jun-14 08:31N 47°32' W 003°24'4 6.9
2018-Jun-14 08:00N 47°35' W 003°27'3 6.7
2018-Jun-14 07:31N 47°37' W 003°31'8 0.4
2018-Jun-13 08:57N 47°44' W 003°38'3 4.2
2018-Jun-13 08:20N 47°42' W 003°35'2 5.2
2018-Jun-13 08:00N 47°41' W 003°32'3 5.3
2018-Jun-13 07:29N 47°40' W 003°29'2 0.2
2018-Jun-12 20:31N 47°39' W 003°27'0 0.0
2018-Jun-12 20:16N 47°39' W 003°27'0 0.0
2018-Jun-12 19:58N 47°39' W 003°27'0 0.0
2018-Jun-12 18:44N 47°39' W 003°27'0 0.0
2018-Jun-12 18:29N 47°39' W 003°27'0 0.1
2018-Jun-12 18:00N 47°39' W 003°27'2 3.5
2018-Jun-12 17:30N 47°38' W 003°24'2 4.5
2018-Jun-12 17:00N 47°36' W 003°23'2 4.6
2018-Jun-12 16:30N 47°34' W 003°22'3 5.0
2018-Jun-12 16:00N 47°31' W 003°21'3 5.3
2018-Jun-12 15:30N 47°29' W 003°19'3 5.4
2018-Jun-12 14:59N 47°27' W 003°16'3 5.3
2018-Jun-12 14:28N 47°25' W 003°13'2 4.9
2018-Jun-12 13:59N 47°24' W 003°10'3 0.1
2018-Jun-11 14:40N 47°21' W 003°08'1 5.7
2018-Jun-11 14:29N 47°22' W 003°07'3 5.8
2018-Jun-11 14:00N 47°25' W 003°05'3 5.5
2018-Jun-11 13:30N 47°27' W 003°03'3 5.5
2018-Jun-11 13:00N 47°30' W 003°02'2 4.8
2018-Jun-11 12:30N 47°32' W 003°02'1 2.9
2018-Jun-11 12:00N 47°33' W 003°01'2 3.9
2018-Jun-11 11:31N 47°35' W 003°01'0 0.7
2018-Jun-11 10:59N 47°35' W 003°02'0 0.0
2018-Jun-11 10:29N 47°35' W 003°02'0 0.0
2018-Jun-11 09:59N 47°35' W 003°02'0 0.0
2018-Jun-11 09:19N 47°35' W 003°02'0 0.0
2018-Jun-11 08:55N 47°35' W 003°02'0 0.0
2018-Jun-11 08:28N 47°35' W 003°02'0 0.0
2018-Jun-09 14:05N 47°35' W 003°02'0 0.0
2018-Jun-09 13:59N 47°35' W 003°02'  
Track history (hours):
 
Tides and Currents Weather Stations Pressure Air Temp Water Temp Dewpoint Dewpoint Depression Visibility Wind Speed Wind Dir Waves Ship Positions

Ewae

Last reported at 2018-Jun-18 16:04 UTC. Time now 2018-Jun-21 23:43 UTC.
Position N 47°23' W 002°40'.

Length 9 m.

MMSI: 227348810.

Date/timePositionNaut miles runAvg speedWind from/ knotsBaromVisibWave heightAir tempDewpointWater temp
2018-Jun-18 16:04N 47°23' W 002°40'0 4.6
2018-Jun-18 16:00N 47°23' W 002°41'3 4.7
2018-Jun-18 15:16N 47°24' W 002°46'2 5.0
2018-Jun-18 14:58N 47°24' W 002°48'3 5.8
2018-Jun-18 14:30N 47°26' W 002°51'3 5.8
2018-Jun-18 14:00N 47°28' W 002°54'2 4.7
2018-Jun-18 13:29N 47°30' W 002°57'2 4.8
2018-Jun-18 13:00N 47°31' W 002°59'3 5.3
2018-Jun-18 12:30N 47°34' W 003°01'2 3.5
2018-Jun-18 12:00N 47°35' W 003°02'0 0.0
2018-Jun-18 10:15N 47°35' W 003°02'0 0.0
2018-Jun-18 09:57N 47°35' W 003°02'0 0.0
2018-Jun-18 09:30N 47°35' W 003°02'0 0.0
2018-Jun-18 09:00N 47°35' W 003°02'0 0.0
2018-Jun-16 11:53N 47°35' W 003°02'0 0.6
2018-Jun-16 11:30N 47°35' W 003°01'2 3.6
2018-Jun-16 11:00N 47°34' W 003°00'1 2.4
2018-Jun-16 10:30N 47°33' W 002°60'2 3.8
2018-Jun-16 10:00N 47°31' W 002°58'1 1.8
2018-Jun-16 09:30N 47°31' W 002°56'3 6.2
2018-Jun-16 08:59N 47°34' W 002°54'3 5.5
2018-Jun-16 08:30N 47°36' W 002°52'0 0.0
2018-Jun-15 15:55N 47°36' W 002°51'0 0.0
2018-Jun-15 15:28N 47°36' W 002°51'0 0.0
2018-Jun-15 14:55N 47°36' W 002°51'0 0.0
2018-Jun-15 14:28N 47°36' W 002°51'0 0.0
2018-Jun-15 13:58N 47°36' W 002°51'1 3.1
2018-Jun-15 13:30N 47°35' W 002°52'1 2.6
2018-Jun-15 13:00N 47°34' W 002°54'1 2.3
2018-Jun-15 12:30N 47°33' W 002°55'1 1.3
2018-Jun-15 12:00N 47°33' W 002°56'1 2.0
2018-Jun-15 11:30N 47°32' W 002°56'1 2.6
2018-Jun-15 11:00N 47°31' W 002°56'2 3.2
2018-Jun-15 10:30N 47°30' W 002°58'2 3.4
2018-Jun-15 10:00N 47°28' W 002°60'3 3.7
2018-Jun-15 09:06N 47°26' W 003°04'0 2.7
2018-Jun-15 08:59N 47°26' W 003°04'1 2.4
2018-Jun-15 08:30N 47°26' W 003°05'1 2.3
2018-Jun-15 08:00N 47°25' W 003°07'1 2.0
2018-Jun-15 07:29N 47°25' W 003°08'2 4.4
2018-Jun-15 06:56N 47°24' W 003°12'1 0.1
2018-Jun-14 10:20N 47°23' W 003°13'2 6.3
2018-Jun-14 10:01N 47°24' W 003°15'3 5.9
2018-Jun-14 09:31N 47°27' W 003°18'3 6.4
2018-Jun-14 09:01N 47°29' W 003°21'3 6.8
2018-Jun-14 08:31N 47°32' W 003°24'4 6.9
2018-Jun-14 08:00N 47°35' W 003°27'3 6.7
2018-Jun-14 07:31N 47°37' W 003°31'8 0.4
2018-Jun-13 08:57N 47°44' W 003°38'3 4.2
2018-Jun-13 08:20N 47°42' W 003°35'2 5.2
2018-Jun-13 08:00N 47°41' W 003°32'3 5.3
2018-Jun-13 07:29N 47°40' W 003°29'2 0.2
2018-Jun-12 20:31N 47°39' W 003°27'0 0.0
2018-Jun-12 20:16N 47°39' W 003°27'0 0.0
2018-Jun-12 19:58N 47°39' W 003°27'0 0.0
2018-Jun-12 18:44N 47°39' W 003°27'0 0.0
2018-Jun-12 18:29N 47°39' W 003°27'0 0.1
2018-Jun-12 18:00N 47°39' W 003°27'2 3.5
2018-Jun-12 17:30N 47°38' W 003°24'2 4.5
2018-Jun-12 17:00N 47°36' W 003°23'2 4.6
2018-Jun-12 16:30N 47°34' W 003°22'3 5.0
2018-Jun-12 16:00N 47°31' W 003°21'3 5.3
2018-Jun-12 15:30N 47°29' W 003°19'3 5.4
2018-Jun-12 14:59N 47°27' W 003°16'3 5.3
2018-Jun-12 14:28N 47°25' W 003°13'2 4.9
2018-Jun-12 13:59N 47°24' W 003°10'3 0.1
2018-Jun-11 14:40N 47°21' W 003°08'1 5.7
2018-Jun-11 14:29N 47°22' W 003°07'3 5.8
2018-Jun-11 14:00N 47°25' W 003°05'3 5.5
2018-Jun-11 13:30N 47°27' W 003°03'3 5.5
2018-Jun-11 13:00N 47°30' W 003°02'2 4.8
2018-Jun-11 12:30N 47°32' W 003°02'1 2.9
2018-Jun-11 12:00N 47°33' W 003°01'2 3.9
2018-Jun-11 11:31N 47°35' W 003°01'0 0.7
2018-Jun-11 10:59N 47°35' W 003°02'0 0.0
2018-Jun-11 10:29N 47°35' W 003°02'0 0.0
2018-Jun-11 09:59N 47°35' W 003°02'0 0.0
2018-Jun-11 09:19N 47°35' W 003°02'0 0.0
2018-Jun-11 08:55N 47°35' W 003°02'0 0.0
2018-Jun-11 08:28N 47°35' W 003°02'0 0.0
2018-Jun-09 14:05N 47°35' W 003°02'0 0.0
2018-Jun-09 13:59N 47°35' W 003°02'  

Dump ship's entire track history